Time,TemperatureF,DewpointF,PressureIn,WindDirection,WindDirectionDegrees,WindSpeedMPH,WindSpeedGustMPH,Humidity,HourlyPrecipIn,Conditions,Clouds,dailyrainin,SoftwareType,DateUTC
2013-05-27 00:00:00,86.0,-99.9,-100.00,West,281,5.0,6.0,-999,-99.99,,,-99.99,,2013-05-27 06:00:00,
2013-05-27 00:02:00,87.0,-99.9,-100.00,WNW,297,3.0,7.0,-999,-99.99,,,-99.99,,2013-05-27 06:02:00,
2013-05-27 00:11:00,87.0,-99.9,-100.00,WNW,297,3.0,7.0,-999,-99.99,,,-99.99,,2013-05-27 06:11:00,
2013-05-27 00:32:00,86.0,-99.9,-100.00,WNW,294,5.0,10.0,-999,-99.99,,,-99.99,,2013-05-27 06:32:00,
2013-05-27 00:42:00,86.0,-99.9,-100.00,WNW,294,5.0,10.0,-999,-99.99,,,-99.99,,2013-05-27 06:42:00,
2013-05-27 00:52:00,86.0,-99.9,-100.00,West,281,5.0,6.0,-999,-99.99,,,-99.99,,2013-05-27 06:52:00,
2013-05-27 01:53:00,81.0,-99.9,-100.00,NW,315,2.0,5.0,-999,-99.99,,,-99.99,,2013-05-27 07:53:00,
2013-05-27 02:02:00,81.0,-99.9,-100.00,NW,315,2.0,5.0,-999,-99.99,,,-99.99,,2013-05-27 08:02:00,
2013-05-27 02:10:00,80.0,-99.9,-100.00,NE,53,3.0,7.0,-999,-99.99,,,-99.99,,2013-05-27 08:10:00,
2013-05-27 02:52:00,80.0,-99.9,-100.00,NE,53,3.0,7.0,-999,-99.99,,,-99.99,,2013-05-27 08:52:00,
2013-05-27 03:02:00,80.0,-99.9,-100.00,NE,53,3.0,7.0,-999,-99.99,,,-99.99,,2013-05-27 09:02:00,
2013-05-27 03:53:00,80.0,-99.9,-100.00,SW,225,5.0,7.0,-999,-99.99,,,-99.99,,2013-05-27 09:53:00,
2013-05-27 04:03:00,80.0,-99.9,-100.00,SW,225,5.0,7.0,-999,-99.99,,,-99.99,,2013-05-27 10:03:00,
2013-05-27 04:50:00,78.0,-99.9,-100.00,SSW,209,2.0,4.0,-999,-99.99,,,-99.99,,2013-05-27 10:50:00,
2013-05-27 05:32:00,78.0,-99.9,-100.00,SSW,209,2.0,4.0,-999,-99.99,,,-99.99,,2013-05-27 11:32:00,
2013-05-27 05:42:00,78.0,-99.9,-100.00,SSW,209,2.0,4.0,-999,-99.99,,,-99.99,,2013-05-27 11:42:00,
2013-05-27 06:02:00,76.0,-99.9,-100.00,NE,40,4.0,4.0,-999,-99.99,,,-99.99,,2013-05-27 12:02:00,
2013-05-27 06:12:00,76.0,-99.9,-100.00,NE,40,4.0,4.0,-999,-99.99,,,-99.99,,2013-05-27 12:12:00,
2013-05-27 06:22:00,75.0,-99.9,-100.00,WSW,237,1.0,6.0,-999,-99.99,,,-99.99,,2013-05-27 12:22:00,
2013-05-27 06:30:00,71.0,-99.9,-100.00,NE,36,4.0,4.0,-999,-99.99,,,-99.99,,2013-05-27 12:30:00,
2013-05-27 06:32:00,75.0,-99.9,-100.00,WSW,237,1.0,6.0,-999,-99.99,,,-99.99,,2013-05-27 12:32:00,
2013-05-27 06:52:00,69.0,-99.9,-100.00,SW,220,6.0,6.0,-999,-99.99,,,-99.99,,2013-05-27 12:52:00,
2013-05-27 07:02:00,71.0,-99.9,-100.00,NE,36,4.0,4.0,-999,-99.99,,,-99.99,,2013-05-27 13:02:00,
2013-05-27 07:11:00,71.0,-99.9,-100.00,NE,36,4.0,4.0,-999,-99.99,,,-99.99,,2013-05-27 13:11:00,
2013-05-27 07:22:00,71.0,-99.9,-100.00,NE,36,4.0,4.0,-999,-99.99,,,-99.99,,2013-05-27 13:22:00,
2013-05-27 08:32:00,77.0,-99.9,-100.00,NE,38,3.0,4.0,-999,-99.99,,,-99.99,,2013-05-27 14:32:00,
2013-05-27 08:42:00,77.0,-99.9,-100.00,NE,38,3.0,4.0,-999,-99.99,,,-99.99,,2013-05-27 14:42:00,
2013-05-27 08:52:00,77.0,-99.9,-100.00,NE,38,3.0,4.0,-999,-99.99,,,-99.99,,2013-05-27 14:52:00,
2013-05-27 10:00:00,89.0,-99.9,-100.00,WSW,251,2.0,5.0,-999,-99.99,,,-99.99,,2013-05-27 16:00:00,
2013-05-27 10:33:00,89.0,-99.9,-100.00,WSW,251,2.0,5.0,-999,-99.99,,,-99.99,,2013-05-27 16:33:00,
2013-05-27 10:40:00,89.0,-99.9,-100.00,West,267,3.0,5.0,-999,-99.99,,,-99.99,,2013-05-27 16:40:00,
2013-05-27 10:42:00,89.0,-99.9,-100.00,WSW,251,2.0,5.0,-999,-99.99,,,-99.99,,2013-05-27 16:42:00,
2013-05-27 10:53:00,89.0,-99.9,-100.00,WSW,251,2.0,5.0,-999,-99.99,,,-99.99,,2013-05-27 16:53:00,
2013-05-27 11:22:00,89.0,-99.9,-100.00,West,267,3.0,5.0,-999,-99.99,,,-99.99,,2013-05-27 17:22:00,
2013-05-27 11:32:00,89.0,-99.9,-100.00,West,267,3.0,5.0,-999,-99.99,,,-99.99,,2013-05-27 17:32:00,
2013-05-27 12:22:00,91.0,-99.9,-100.00,North,1,1.0,4.0,-999,-99.99,,,-99.99,,2013-05-27 18:22:00,
2013-05-27 12:32:00,91.0,-99.9,-100.00,North,1,1.0,4.0,-999,-99.99,,,-99.99,,2013-05-27 18:32:00,
2013-05-27 14:22:00,94.0,-99.9,-100.00,WNW,293,3.0,7.0,-999,-99.99,,,-99.99,,2013-05-27 20:22:00,
2013-05-27 14:32:00,94.0,-99.9,-100.00,WNW,293,3.0,7.0,-999,-99.99,,,-99.99,,2013-05-27 20:32:00,
2013-05-27 15:10:00,97.0,-99.9,-100.00,WNW,283,2.0,7.0,-999,-99.99,,,-99.99,,2013-05-27 21:10:00,
2013-05-27 15:53:00,97.0,-99.9,-100.00,WNW,283,2.0,7.0,-999,-99.99,,,-99.99,,2013-05-27 21:53:00,
2013-05-27 16:03:00,97.0,-99.9,-100.00,WNW,283,2.0,7.0,-999,-99.99,,,-99.99,,2013-05-27 22:03:00,
2013-05-27 17:20:00,95.0,-99.9,-100.00,NE,43,2.0,4.0,-999,-99.99,,,-99.99,,2013-05-27 23:20:00,
2013-05-27 17:52:00,94.0,-99.9,-100.00,North,350,0.0,5.0,-999,-99.99,,,-99.99,,2013-05-27 23:52:00,
2013-05-27 18:02:00,95.0,-99.9,-100.00,NE,43,2.0,4.0,-999,-99.99,,,-99.99,,2013-05-28 00:02:00,
2013-05-27 18:12:00,95.0,-99.9,-100.00,NE,43,2.0,4.0,-999,-99.99,,,-99.99,,2013-05-28 00:12:00,
2013-05-27 18:20:00,94.0,-99.9,-100.00,WSW,252,2.0,5.0,-999,-99.99,,,-99.99,,2013-05-28 00:20:00,
2013-05-27 19:01:00,94.0,-99.9,-100.00,WSW,252,2.0,5.0,-999,-99.99,,,-99.99,,2013-05-28 01:01:00,
2013-05-27 19:10:00,93.0,-99.9,-100.00,WSW,255,2.0,3.0,-999,-99.99,,,-99.99,,2013-05-28 01:10:00,
2013-05-27 19:11:00,94.0,-99.9,-100.00,WSW,252,2.0,5.0,-999,-99.99,,,-99.99,,2013-05-28 01:11:00,
2013-05-27 19:52:00,93.0,-99.9,-100.00,WSW,255,2.0,3.0,-999,-99.99,,,-99.99,,2013-05-28 01:52:00,
2013-05-27 20:02:00,93.0,-99.9,-100.00,WSW,255,2.0,3.0,-999,-99.99,,,-99.99,,2013-05-28 02:02:00,
2013-05-27 21:10:00,88.0,-99.9,-100.00,North,11,1.0,1.0,-999,-99.99,,,-99.99,,2013-05-28 03:10:00,
2013-05-27 21:53:00,88.0,-99.9,-100.00,North,11,1.0,1.0,-999,-99.99,,,-99.99,,2013-05-28 03:53:00,
2013-05-27 22:03:00,88.0,-99.9,-100.00,North,11,1.0,1.0,-999,-99.99,,,-99.99,,2013-05-28 04:03:00,
2013-05-27 23:02:00,79.0,-99.9,-100.00,ESE,115,1.0,1.0,-999,-99.99,,,-99.99,,2013-05-28 05:02:00,
2013-05-27 23:12:00,79.0,-99.9,-100.00,ESE,115,1.0,1.0,-999,-99.99,,,-99.99,,2013-05-28 05:12:00,
2013-05-27 23:22:00,79.0,-99.9,-100.00,ESE,115,1.0,1.0,-999,-99.99,,,-99.99,,2013-05-28 05:22:00,